createdAt,value
2018-05-21T00:00:03.649Z,78.60
2018-05-21T00:02:31.193Z,79.60
2018-05-21T00:04:59.479Z,80.20
2018-05-21T00:07:27.015Z,80.10
2018-05-21T00:09:55.325Z,79.10
2018-05-21T00:12:22.887Z,79.10
2018-05-21T00:14:50.612Z,78.70
2018-05-21T00:17:18.147Z,79.10
2018-05-21T00:19:45.672Z,78.90
2018-05-21T00:22:13.237Z,78.90
2018-05-21T00:24:40.738Z,78.50
2018-05-21T00:27:08.270Z,78.20
2018-05-21T00:29:35.770Z,78.60
2018-05-21T00:32:04.089Z,78.70
2018-05-21T00:34:31.594Z,78.70
2018-05-21T00:36:59.162Z,78.30
2018-05-21T00:39:26.694Z,78.10
2018-05-21T00:41:54.215Z,78.30
2018-05-21T00:44:21.775Z,78.40
2018-05-21T00:46:49.626Z,78.70
2018-05-21T00:49:17.160Z,79.00
2018-05-21T00:51:44.712Z,79.40
2018-05-21T00:54:12.222Z,79.80
2018-05-21T00:56:39.709Z,80.00
2018-05-21T00:59:07.236Z,80.30
2018-05-21T01:01:34.732Z,80.70
2018-05-21T01:04:02.257Z,80.80
2018-05-21T01:06:29.786Z,81.00
2018-05-21T01:08:57.368Z,81.20
2018-05-21T01:11:24.935Z,81.80
2018-05-21T01:13:52.476Z,81.90
2018-05-21T01:16:20.005Z,82.40
2018-05-21T01:18:48.292Z,83.70
2018-05-21T01:21:16.592Z,84.40
2018-05-21T01:23:44.159Z,84.40
2018-05-21T01:26:11.721Z,85.00
2018-05-21T01:28:39.225Z,84.90
2018-05-21T01:31:06.737Z,85.90
2018-05-21T01:33:34.250Z,86.30
2018-05-21T01:36:02.549Z,88.20
2018-05-21T01:38:30.074Z,87.30
2018-05-21T01:40:57.571Z,87.80
2018-05-21T01:43:25.118Z,88.30
2018-05-21T01:45:52.681Z,88.70
2018-05-21T01:48:20.214Z,89.00
2018-05-21T01:50:47.723Z,89.50
2018-05-21T01:53:15.238Z,89.50
2018-05-21T01:55:43.504Z,90.20
2018-05-21T01:58:11.008Z,90.20
2018-05-21T02:00:40.361Z,90.40
2018-05-21T02:03:09.526Z,90.50
2018-05-21T02:05:38.616Z,91.00
2018-05-21T02:08:06.162Z,91.00
2018-05-21T02:10:33.696Z,91.00
2018-05-21T02:13:01.986Z,91.30
2018-05-21T02:15:29.524Z,91.30
2018-05-21T02:17:57.794Z,91.50
2018-05-21T02:20:26.086Z,91.60
2018-05-21T02:22:53.622Z,91.60
2018-05-21T02:25:21.150Z,91.80
2018-05-21T02:27:48.702Z,91.90
2018-05-21T02:30:16.233Z,92.00
2018-05-21T02:32:43.735Z,92.10
2018-05-21T02:35:11.263Z,92.20
2018-05-21T02:37:38.779Z,92.20
2018-05-21T02:40:07.069Z,92.40
2018-05-21T02:42:34.598Z,92.40
2018-05-21T02:45:03.456Z,92.50
2018-05-21T02:47:30.981Z,92.70
2018-05-21T02:49:58.490Z,92.70
2018-05-21T02:52:26.077Z,92.70
2018-05-21T02:54:54.348Z,93.00
2018-05-21T02:57:22.643Z,93.10
2018-05-21T02:59:50.192Z,92.90
2018-05-21T03:02:19.786Z,93.10
2018-05-21T03:04:48.082Z,93.20
2018-05-21T03:07:15.624Z,93.20
2018-05-21T03:09:44.278Z,93.20
2018-05-21T03:12:11.792Z,93.30
2018-05-21T03:14:39.330Z,93.40
2018-05-21T03:17:06.830Z,93.50
2018-05-21T03:19:34.364Z,93.60
2018-05-21T03:22:01.886Z,93.70
2018-05-21T03:24:29.386Z,93.70
2018-05-21T03:26:56.920Z,93.80
2018-05-21T03:29:25.217Z,94.10
2018-05-21T03:31:52.762Z,94.10
2018-05-21T03:34:21.037Z,94.20
2018-05-21T03:36:49.335Z,94.20
2018-05-21T03:39:16.900Z,94.20
2018-05-21T03:41:44.535Z,94.20
2018-05-21T03:44:12.803Z,94.30
2018-05-21T03:46:40.400Z,94.30
2018-05-21T03:49:07.918Z,94.30
2018-05-21T03:51:35.504Z,94.30
2018-05-21T03:54:03.050Z,94.60
2018-05-21T03:56:31.340Z,94.20
2018-05-21T03:59:12.206Z,94.20
2018-05-21T04:01:51.856Z,94.10
2018-05-21T04:04:20.297Z,93.90
2018-05-21T04:06:47.788Z,93.90
2018-05-21T04:09:15.353Z,93.80
2018-05-21T04:11:42.889Z,93.70
2018-05-21T04:14:11.151Z,93.60
2018-05-21T04:16:38.673Z,93.60
2018-05-21T04:19:06.361Z,93.30
2018-05-21T04:21:33.874Z,93.10
2018-05-21T04:24:01.404Z,92.90
2018-05-21T04:26:29.767Z,92.60
2018-05-21T04:28:57.275Z,92.60
2018-05-21T04:31:24.786Z,92.30
2018-05-21T04:33:52.286Z,92.10
2018-05-21T04:36:20.651Z,91.90
2018-05-21T04:38:48.734Z,91.60
2018-05-21T04:41:16.280Z,91.40
2018-05-21T04:43:43.973Z,91.30
2018-05-21T04:46:13.145Z,91.10
2018-05-21T04:48:40.668Z,90.70
2018-05-21T04:51:08.191Z,90.40
2018-05-21T04:53:35.707Z,90.10
2018-05-21T04:56:03.255Z,90.20
2018-05-21T04:58:31.541Z,90.10
2018-05-21T05:00:59.922Z,90.00
2018-05-21T05:03:27.428Z,90.00
2018-05-21T05:05:54.952Z,90.00
2018-05-21T05:08:22.479Z,89.50
2018-05-21T05:10:50.810Z,89.20
2018-05-21T05:13:18.335Z,89.20
2018-05-21T05:15:46.224Z,88.80
2018-05-21T05:18:13.740Z,88.70
2018-05-21T05:20:42.035Z,88.10
2018-05-21T05:23:09.669Z,88.10
2018-05-21T05:25:37.224Z,87.60
2018-05-21T05:28:04.749Z,87.30
2018-05-21T05:30:32.262Z,84.80
2018-05-21T05:33:00.551Z,84.40
2018-05-21T05:35:28.075Z,84.40
2018-05-21T05:37:55.586Z,83.20
2018-05-21T05:40:23.109Z,80.80
2018-05-21T05:42:51.420Z,80.10
2018-05-21T05:45:19.001Z,80.00
2018-05-21T05:47:46.578Z,80.80
2018-05-21T05:50:14.112Z,80.80
2018-05-21T05:52:41.615Z,78.60
2018-05-21T05:55:09.897Z,74.80
2018-05-21T05:57:38.199Z,77.10
2018-05-21T06:00:06.281Z,77.00
2018-05-21T06:02:33.963Z,76.50
2018-05-21T06:05:01.487Z,74.60
2018-05-21T06:07:29.007Z,76.10
2018-05-21T06:09:56.550Z,74.70
2018-05-21T06:12:24.042Z,73.90
2018-05-21T06:14:52.369Z,74.90
2018-05-21T06:17:19.872Z,74.90
2018-05-21T06:19:48.169Z,61.00
2018-05-21T06:22:15.705Z,60.80
2018-05-21T06:24:44.009Z,63.70
2018-05-21T06:27:11.509Z,63.60
2018-05-21T06:29:39.023Z,64.00
2018-05-21T06:32:06.529Z,66.80
2018-05-21T06:34:34.167Z,66.40
2018-05-21T06:37:01.675Z,67.50
2018-05-21T06:39:29.942Z,66.40
2018-05-21T06:41:57.464Z,66.40
2018-05-21T06:44:25.015Z,68.10
2018-05-21T06:46:52.553Z,67.00
2018-05-21T06:49:20.077Z,69.00
2018-05-21T06:51:48.108Z,70.80
2018-05-21T06:54:15.610Z,69.20
2018-05-21T06:56:43.894Z,65.90
2018-05-21T06:59:12.235Z,64.70
2018-05-21T07:01:39.770Z,64.70
2018-05-21T07:04:07.326Z,65.70
2018-05-21T07:06:34.897Z,65.80
2018-05-21T07:09:03.624Z,64.30
2018-05-21T07:11:31.168Z,62.60
2018-05-21T07:13:58.701Z,62.60
2018-05-21T07:16:26.232Z,62.50
2018-05-21T07:18:53.761Z,62.00
2018-05-21T07:21:22.033Z,59.70
2018-05-21T07:23:49.563Z,59.70
2018-05-21T07:26:17.094Z,58.30
2018-05-21T07:28:45.117Z,58.20
2018-05-21T07:31:13.520Z,59.30
2018-05-21T07:33:41.030Z,59.80
2018-05-21T07:36:08.539Z,61.10
2018-05-21T07:38:36.307Z,61.00
2018-05-21T07:41:03.825Z,60.10
2018-05-21T07:43:31.321Z,58.40
2018-05-21T07:45:58.831Z,61.60
2018-05-21T07:48:26.336Z,61.00
2018-05-21T07:50:53.849Z,60.60
2018-05-21T07:53:21.348Z,61.20
2018-05-21T07:55:48.900Z,59.80
2018-05-21T07:58:17.248Z,58.30
2018-05-21T08:00:44.696Z,58.20
2018-05-21T08:03:13.593Z,57.90
2018-05-21T08:05:41.947Z,56.10
2018-05-21T08:08:09.458Z,56.10
2018-05-21T08:10:37.744Z,58.60
2018-05-21T08:13:06.023Z,57.90
2018-05-21T08:15:33.558Z,57.80
2018-05-21T08:18:01.100Z,55.30
2018-05-21T08:20:28.635Z,53.10
2018-05-21T08:22:56.168Z,53.30
2018-05-21T08:25:23.721Z,52.70
2018-05-21T08:27:51.214Z,53.90
2018-05-21T08:30:18.760Z,54.10
2018-05-21T08:32:46.304Z,52.30
2018-05-21T08:35:13.832Z,50.80
2018-05-21T08:37:42.115Z,52.50
2018-05-21T08:40:10.378Z,56.30
2018-05-21T08:42:38.769Z,56.20
2018-05-21T08:45:06.200Z,56.20
2018-05-21T08:47:33.734Z,54.60
2018-05-21T08:50:01.260Z,52.50
2018-05-21T08:52:28.858Z,51.90
2018-05-21T08:54:56.335Z,49.80
2018-05-21T08:57:23.856Z,47.20
2018-05-21T08:59:51.359Z,45.30
2018-05-21T09:02:18.881Z,46.10
2018-05-21T09:04:46.383Z,49.80
2018-05-21T09:07:13.896Z,54.00
2018-05-21T09:09:41.414Z,53.80
2018-05-21T09:12:08.897Z,54.00
2018-05-21T09:14:36.432Z,52.90
2018-05-21T09:17:03.965Z,52.10
2018-05-21T09:19:32.288Z,52.50
2018-05-21T09:21:59.818Z,52.50
2018-05-21T09:24:28.095Z,52.00
2018-05-21T09:26:56.377Z,52.00
2018-05-21T09:29:23.909Z,51.30
2018-05-21T09:31:51.413Z,51.10
2018-05-21T09:34:18.938Z,51.30
2018-05-21T09:36:47.216Z,50.20
2018-05-21T09:39:15.472Z,51.30
2018-05-21T09:41:43.006Z,51.20
2018-05-21T09:44:10.512Z,51.00
2018-05-21T09:46:38.837Z,50.00
2018-05-21T09:49:07.110Z,48.20
2018-05-21T09:51:34.634Z,48.10
2018-05-21T09:54:02.148Z,49.70
2018-05-21T09:56:29.673Z,49.70
2018-05-21T09:58:57.197Z,49.10
2018-05-21T10:01:25.527Z,48.00
2018-05-21T10:03:53.066Z,48.00
2018-05-21T10:06:20.578Z,48.80
2018-05-21T10:08:48.106Z,47.30
2018-05-21T10:11:15.647Z,45.00
2018-05-21T10:13:43.197Z,45.50
2018-05-21T10:16:10.705Z,43.50
2018-05-21T10:18:38.220Z,45.30
2018-05-21T10:21:05.765Z,46.80
2018-05-21T10:23:33.288Z,46.50
2018-05-21T10:26:01.634Z,48.00
2018-05-21T10:28:29.081Z,47.40
2018-05-21T10:30:56.610Z,46.40
2018-05-21T10:33:24.143Z,43.70
2018-05-21T10:35:52.428Z,44.70
2018-05-21T10:38:20.691Z,45.20
2018-05-21T10:40:49.003Z,45.60
2018-05-21T10:43:16.542Z,45.50
2018-05-21T10:45:44.077Z,46.50
2018-05-21T10:48:11.583Z,44.10
2018-05-21T10:50:39.111Z,43.00
2018-05-21T10:53:06.631Z,41.10
2018-05-21T10:55:34.170Z,39.20
2018-05-21T10:58:01.747Z,41.40
2018-05-21T11:00:30.031Z,39.10
2018-05-21T11:02:57.564Z,39.10
2018-05-21T11:05:25.056Z,39.80
2018-05-21T11:07:52.623Z,40.10
2018-05-21T11:10:20.909Z,41.80
2018-05-21T11:12:49.212Z,41.50
2018-05-21T11:15:16.735Z,41.50
2018-05-21T11:17:44.266Z,40.70
2018-05-21T11:20:11.804Z,42.70
2018-05-21T11:22:39.344Z,41.70
2018-05-21T11:25:06.901Z,43.30
2018-05-21T11:27:34.498Z,43.80
2018-05-21T11:30:02.037Z,42.50
2018-05-21T11:32:29.538Z,41.90
2018-05-21T11:34:57.227Z,39.20
2018-05-21T11:37:24.761Z,40.60
2018-05-21T11:39:52.305Z,39.10
2018-05-21T11:42:20.607Z,40.10
2018-05-21T11:44:48.895Z,40.50
2018-05-21T11:47:17.196Z,40.70
2018-05-21T11:49:44.762Z,40.70
2018-05-21T11:52:12.267Z,40.80
2018-05-21T11:54:39.772Z,39.60
2018-05-21T11:57:07.303Z,39.90
2018-05-21T11:59:35.573Z,38.40
2018-05-21T12:02:03.973Z,36.40
2018-05-21T12:04:31.417Z,36.30
2018-05-21T12:06:58.962Z,38.20
2018-05-21T12:09:27.535Z,39.70
2018-05-21T12:11:55.079Z,39.60
2018-05-21T12:14:22.588Z,40.00
2018-05-21T12:16:50.106Z,40.70
2018-05-21T12:19:17.625Z,39.80
2018-05-21T12:21:45.284Z,39.40
2018-05-21T12:24:14.107Z,39.10
2018-05-21T12:26:41.687Z,37.40
2018-05-21T12:29:09.239Z,35.10
2018-05-21T12:31:37.544Z,34.40
2018-05-21T12:34:05.086Z,34.30
2018-05-21T12:36:33.367Z,38.60
2018-05-21T12:39:01.668Z,37.80
2018-05-21T12:41:29.179Z,37.80
2018-05-21T12:43:56.703Z,35.70
2018-05-21T12:46:24.220Z,37.80
2018-05-21T12:48:52.500Z,39.10
2018-05-21T12:51:20.759Z,36.80
2018-05-21T12:53:48.269Z,36.70
2018-05-21T12:56:15.796Z,35.20
2018-05-21T12:58:43.367Z,32.50
2018-05-21T13:01:10.878Z,30.30
2018-05-21T13:03:38.405Z,30.70
2018-05-21T13:06:05.940Z,33.50
2018-05-21T13:08:33.465Z,34.40
2018-05-21T13:11:01.756Z,35.00
2018-05-21T13:13:30.066Z,34.80
2018-05-21T13:15:57.567Z,34.70
2018-05-21T13:18:25.085Z,32.40
2018-05-21T13:20:52.640Z,33.60
2018-05-21T13:23:20.138Z,34.10
2018-05-21T13:25:47.667Z,32.90
2018-05-21T13:28:15.195Z,36.10
2018-05-21T13:30:42.722Z,36.70
2018-05-21T13:33:10.246Z,39.60
2018-05-21T13:35:38.515Z,37.50
2018-05-21T13:38:06.017Z,37.50
2018-05-21T13:40:34.281Z,36.60
2018-05-21T13:43:01.831Z,36.50
2018-05-21T13:45:29.328Z,35.00
2018-05-21T13:47:56.837Z,34.70
2018-05-21T13:50:24.403Z,35.50
2018-05-21T13:52:51.925Z,36.90
2018-05-21T13:55:19.432Z,40.60
2018-05-21T13:57:46.962Z,39.30
2018-05-21T14:00:14.496Z,40.40
2018-05-21T14:02:42.020Z,39.20
2018-05-21T14:05:09.554Z,39.20
2018-05-21T14:07:37.095Z,40.70
2018-05-21T14:10:04.626Z,40.60
2018-05-21T14:12:32.151Z,40.40
2018-05-21T14:15:00.450Z,40.60
2018-05-21T14:17:27.945Z,40.50
2018-05-21T14:19:55.491Z,42.20
2018-05-21T14:22:23.004Z,42.30
2018-05-21T14:24:50.528Z,42.30
2018-05-21T14:27:18.041Z,43.00
2018-05-21T14:29:45.616Z,42.70
2018-05-21T14:32:13.075Z,42.80
2018-05-21T14:34:40.678Z,42.40
2018-05-21T14:37:08.203Z,41.70
2018-05-21T14:39:35.701Z,41.80
2018-05-21T14:42:03.232Z,41.60
2018-05-21T14:44:30.840Z,41.40
2018-05-21T14:46:59.199Z,41.50
2018-05-21T14:49:26.805Z,41.40
2018-05-21T14:51:55.299Z,43.10
2018-05-21T14:54:22.854Z,43.30
2018-05-21T14:56:50.365Z,43.50
2018-05-21T14:59:18.664Z,42.40
2018-05-21T15:01:46.298Z,42.50
2018-05-21T15:04:14.594Z,43.70
2018-05-21T15:06:42.896Z,42.20
2018-05-21T15:09:10.404Z,42.10
2018-05-21T15:11:37.939Z,42.30
2018-05-21T15:14:05.468Z,42.20
2018-05-21T15:16:34.063Z,42.30
2018-05-21T15:19:01.577Z,42.60
2018-05-21T15:21:29.892Z,43.10
2018-05-21T15:23:57.424Z,43.10
2018-05-21T15:26:24.986Z,43.30
2018-05-21T15:28:52.528Z,43.80
2018-05-21T15:31:20.021Z,43.40
2018-05-21T15:33:47.561Z,43.90
2018-05-21T15:36:15.139Z,42.60
2018-05-21T15:38:42.646Z,43.20
2018-05-21T15:41:10.151Z,43.00
2018-05-21T15:43:37.674Z,42.20
2018-05-21T15:46:05.214Z,41.90
2018-05-21T15:48:32.769Z,42.60
2018-05-21T15:51:00.246Z,42.40
2018-05-21T15:53:27.777Z,41.40
2018-05-21T15:55:55.274Z,41.90
2018-05-21T15:58:23.589Z,44.10
2018-05-21T16:00:51.102Z,44.10
2018-05-21T16:03:19.382Z,44.30
2018-05-21T16:05:47.648Z,44.50
2018-05-21T16:08:15.168Z,44.40
2018-05-21T16:10:42.694Z,44.50
2018-05-21T16:13:10.205Z,44.10
2018-05-21T16:15:37.773Z,44.10
2018-05-21T16:18:05.330Z,44.20
2018-05-21T16:23:06.730Z,44.10
2018-05-21T16:25:34.258Z,43.50
2018-05-21T16:28:01.759Z,43.80
2018-05-21T16:30:29.284Z,44.40
2018-05-21T16:32:57.620Z,45.10
2018-05-21T16:35:25.217Z,44.40
2018-05-21T16:37:53.310Z,45.00
2018-05-21T16:40:20.810Z,45.70
2018-05-21T16:42:48.338Z,46.10
2018-05-21T16:45:15.844Z,46.80
2018-05-21T16:47:43.394Z,46.80
2018-05-21T16:50:10.912Z,46.90
2018-05-21T16:52:38.447Z,47.00
2018-05-21T16:55:06.716Z,47.30
2018-05-21T16:57:35.372Z,47.30
2018-05-21T17:00:03.003Z,47.20
2018-05-21T17:02:30.447Z,47.00
2018-05-21T17:04:58.018Z,47.30
2018-05-21T17:07:25.540Z,47.40
2018-05-21T17:09:53.852Z,47.50
2018-05-21T17:12:21.361Z,47.50
2018-05-21T17:14:49.379Z,48.00
2018-05-21T17:17:16.896Z,48.30
2018-05-21T17:19:44.406Z,48.80
2018-05-21T17:22:11.933Z,48.60
2018-05-21T17:24:40.205Z,49.20
2018-05-21T17:27:09.767Z,49.40
2018-05-21T17:29:37.392Z,49.40
2018-05-21T17:32:04.960Z,50.20
2018-05-21T17:34:32.487Z,50.50
2018-05-21T17:37:00.790Z,53.30
2018-05-21T17:39:28.340Z,53.30
2018-05-21T17:41:55.950Z,54.00
2018-05-21T17:44:23.467Z,54.90
2018-05-21T17:46:50.979Z,55.50
2018-05-21T17:49:18.608Z,56.50
2018-05-21T17:51:47.032Z,57.40
2018-05-21T17:54:15.329Z,59.20
2018-05-21T17:56:42.846Z,59.10
2018-05-21T17:59:10.402Z,59.90
2018-05-21T18:01:37.916Z,60.90
2018-05-21T18:04:06.228Z,62.60
2018-05-21T18:06:33.774Z,62.10
2018-05-21T18:09:01.278Z,63.00
2018-05-21T18:11:29.560Z,64.30
2018-05-21T18:13:57.804Z,65.10
2018-05-21T18:16:26.596Z,65.00
2018-05-21T18:18:54.477Z,65.70
2018-05-21T18:21:22.897Z,66.20
2018-05-21T18:23:50.458Z,66.20
2018-05-21T18:26:18.032Z,66.60
2018-05-21T18:28:45.564Z,66.50
2018-05-21T18:31:13.089Z,65.00
2018-05-21T18:33:40.629Z,64.90
2018-05-21T18:36:08.181Z,65.10
2018-05-21T18:38:35.723Z,65.60
2018-05-21T18:41:03.607Z,66.10
2018-05-21T18:43:32.102Z,66.50
2018-05-21T18:45:59.628Z,66.90
2018-05-21T18:48:27.193Z,67.10
2018-05-21T18:50:54.778Z,67.70
2018-05-21T18:53:22.335Z,69.10
2018-05-21T18:55:49.924Z,69.30
2018-05-21T18:58:18.223Z,69.70
2018-05-21T19:00:45.786Z,69.60
2018-05-21T19:03:13.299Z,70.30
2018-05-21T19:05:40.833Z,70.70
2018-05-21T19:08:08.362Z,72.30
2018-05-21T19:10:35.910Z,72.40
2018-05-21T19:13:03.436Z,72.90
2018-05-21T19:15:32.666Z,73.40
2018-05-21T19:18:01.076Z,74.50
2018-05-21T19:20:28.950Z,74.40
2018-05-21T19:22:56.475Z,74.60
2018-05-21T19:25:23.999Z,74.80
2018-05-21T19:27:52.404Z,75.10
2018-05-21T19:30:19.930Z,76.70
2018-05-21T19:32:47.452Z,75.80
2018-05-21T19:35:14.982Z,76.00
2018-05-21T19:37:42.550Z,76.40
2018-05-21T19:40:11.550Z,76.50
2018-05-21T19:42:39.064Z,77.10
2018-05-21T19:45:07.383Z,77.90
2018-05-21T19:47:34.902Z,77.80
2018-05-21T19:50:02.407Z,78.20
2018-05-21T19:52:29.939Z,79.10
2018-05-21T19:54:58.293Z,79.90
2018-05-21T19:57:26.595Z,80.40
2018-05-21T19:59:54.303Z,80.20
2018-05-21T20:02:22.131Z,81.00
2018-05-21T20:04:50.557Z,81.90
2018-05-21T20:07:18.498Z,82.50
2018-05-21T20:09:46.081Z,83.10
2018-05-21T20:12:13.607Z,83.50
2018-05-21T20:14:41.213Z,84.10
2018-05-21T20:17:09.085Z,84.20
2018-05-21T20:19:36.628Z,83.90
2018-05-21T20:22:04.192Z,84.20
2018-05-21T20:24:32.044Z,83.20
2018-05-21T20:26:59.675Z,81.10
2018-05-21T20:29:27.256Z,80.90
2018-05-21T20:31:54.793Z,80.30
2018-05-21T20:34:22.343Z,79.20
2018-05-21T20:36:49.910Z,78.90
2018-05-21T20:39:17.436Z,78.20
2018-05-21T20:41:45.836Z,78.10
2018-05-21T20:44:13.411Z,77.30
2018-05-21T20:46:41.152Z,77.30
2018-05-21T20:49:08.738Z,77.10
2018-05-21T20:51:36.323Z,76.70
2018-05-21T20:54:03.855Z,76.70
2018-05-21T20:56:31.405Z,76.60
2018-05-21T20:58:58.910Z,76.90
2018-05-21T21:01:26.462Z,76.80
2018-05-21T21:03:53.960Z,76.80
2018-05-21T21:06:22.239Z,77.20
2018-05-21T21:08:49.732Z,77.10
2018-05-21T21:11:17.296Z,77.10
2018-05-21T21:13:44.813Z,77.40
2018-05-21T21:16:12.342Z,77.70
2018-05-21T21:18:40.634Z,78.20
2018-05-21T21:21:08.912Z,78.20
2018-05-21T21:23:36.500Z,78.10
2018-05-21T21:26:04.052Z,78.30
2018-05-21T21:28:31.589Z,78.60
2018-05-21T21:30:59.867Z,78.40
2018-05-21T21:33:28.149Z,78.80
2018-05-21T21:35:56.448Z,78.90
2018-05-21T21:38:23.959Z,78.90
2018-05-21T21:40:51.466Z,79.80
2018-05-21T21:43:18.991Z,79.90
2018-05-21T21:45:47.320Z,80.80
2018-05-21T21:48:14.891Z,81.60
2018-05-21T21:50:42.424Z,81.20
2018-05-21T21:53:09.946Z,81.40
2018-05-21T21:55:38.212Z,82.10
2018-05-21T21:58:05.729Z,82.00
2018-05-21T22:00:33.335Z,82.80
2018-05-21T22:03:01.648Z,83.10
2018-05-21T22:05:29.165Z,83.00
2018-05-21T22:07:56.757Z,83.10
2018-05-21T22:10:24.294Z,83.70
2018-05-21T22:12:52.597Z,84.60
2018-05-21T22:15:20.158Z,84.50
2018-05-21T22:17:48.561Z,85.00
2018-05-21T22:20:16.081Z,84.80
2018-05-21T22:22:43.672Z,85.30
2018-05-21T22:25:11.171Z,85.60
2018-05-21T22:27:38.699Z,85.80
2018-05-21T22:30:06.210Z,86.20
2018-05-21T22:32:33.747Z,86.70
2018-05-21T22:35:02.036Z,87.40
2018-05-21T22:37:30.396Z,87.90
2018-05-21T22:39:57.938Z,87.90
2018-05-21T22:42:25.717Z,87.90
2018-05-21T22:44:53.267Z,88.50
2018-05-21T22:47:20.851Z,88.80
2018-05-21T22:49:49.166Z,89.60
2018-05-21T22:52:16.682Z,89.60
2018-05-21T22:54:44.949Z,90.20
2018-05-21T22:57:12.472Z,90.10
2018-05-21T22:59:40.000Z,90.30
2018-05-21T23:02:07.515Z,90.30
2018-05-21T23:04:35.051Z,90.50
2018-05-21T23:07:02.590Z,90.60
2018-05-21T23:09:30.104Z,90.80
2018-05-21T23:11:57.624Z,91.00
2018-05-21T23:14:25.969Z,91.30
2018-05-21T23:16:53.503Z,91.40
2018-05-21T23:19:21.808Z,91.40
2018-05-21T23:21:49.314Z,91.70
2018-05-21T23:24:16.828Z,91.90
2018-05-21T23:26:44.363Z,92.10
2018-05-21T23:29:11.878Z,92.20
2018-05-21T23:31:39.400Z,92.80
2018-05-21T23:34:07.044Z,92.50
2018-05-21T23:36:35.373Z,92.90
2018-05-21T23:39:02.884Z,92.90
2018-05-21T23:41:30.429Z,92.90
2018-05-21T23:43:58.740Z,93.10
2018-05-21T23:46:26.243Z,93.10
2018-05-21T23:48:55.378Z,93.40
2018-05-21T23:51:22.887Z,93.30
2018-05-21T23:53:50.440Z,93.30
2018-05-21T23:56:17.950Z,93.50
2018-05-21T23:58:45.460Z,93.50
